Aérodrome :
LOGIN :

S'inscrire | Disclaimer

   EN    FR    IT 

 










Légende :    VFR   VFR Marginal   IFR   IFR Intensif   IFR Très Intensif
Visi : 
Plafond : 
>= 8 km
>= 3000ft
5 à 8 km
1000 à 3000 ft
1500m à 5 km
500 à 1000 ft
800 à 1500m
200 à 500 ft
< 800m
< 200 ft
Symboles :   Orages  Brouillard  Fortes neiges  Fortes précipitations  Vent > 20 kt
SIGMETs :   Divers  Orages  Givrage  Turbulence  Onde Orograph.  Cendres Volcan.






- Altitude de l'aérodrome : 844 ft
- Code IATA : OSR


LKMT - Ostrava-Mosnov

DERNIER METAR :
  • 110900Z 02005KT 350V060 CAVOK 26/20 Q1019 NOSIG

METARs EXPIRÉS :
  • 110830Z 03005KT 330V070 CAVOK 25/19 Q1019 NOSIG
  • 110800Z 02004KT 300V060 CAVOK 24/19 Q1019 NOSIG
  • 110730Z 03004KT 360V070 CAVOK 23/19 Q1019 NOSIG
  • 110700Z 02005KT CAVOK 21/18 Q1019 NOSIG
  • 110630Z 04004KT CAVOK 21/18 Q1019 NOSIG

TAF TAF LKMT
Valide du 11 à 06h jusqu'au 12 à 12h UTC


110500Z 1106/1212 36006KT CAVOK
TEMPO 1109/1118 03010KT 7000 SHRA SCT040TCU
PROB30
TEMPO 1112/1116 06014KT 3000 TSRA SCT033CB
TEMPO 1201/1206 3500 BR NSC
BECMG 1206/1208 CAVOK
BECMG 1208/1210 03008KT 9999 SCT043



MET'MAP, la Météo Aéronautique d'un coup d'oeil ! - Copyright ORBIFLY Décembre 2007 - Disclaimer

ORBIFLY MET'MAP TEAM :

Programmation & Développement : Alexandra Zaïnal
Sur une idée originale de : Baudouin d'Aumeries
Assistance à la programmation : Marc-Olivier Méhu
Soutien technique & logistique : Manuel Goepfert

Contact : metmap@orbifly.com




SOURCES & CREDITS :

   NOAA